sensor_id;sensor_type;location;lat;lon;timestamp;P1;durP1;ratioP1;P2;durP2;ratioP2
58097;SDS011;43913;55.940;37.504;2023-01-13T00:00:45;8.70;;;6.33;;
58097;SDS011;43913;55.940;37.504;2023-01-13T00:03:11;10.30;;;6.30;;
58097;SDS011;43913;55.940;37.504;2023-01-13T00:05:37;8.93;;;6.70;;
58097;SDS011;43913;55.940;37.504;2023-01-13T00:08:03;9.23;;;6.23;;
58097;SDS011;43913;55.940;37.504;2023-01-13T00:10:31;8.63;;;7.33;;
58097;SDS011;43913;55.940;37.504;2023-01-13T00:12:57;11.83;;;6.30;;
58097;SDS011;43913;55.940;37.504;2023-01-13T00:15:23;9.43;;;7.33;;
58097;SDS011;43913;55.940;37.504;2023-01-13T00:17:49;9.37;;;6.40;;
58097;SDS011;43913;55.940;37.504;2023-01-13T00:20:15;8.37;;;6.50;;
58097;SDS011;43913;55.940;37.504;2023-01-13T00:22:41;10.93;;;6.63;;
58097;SDS011;43913;55.940;37.504;2023-01-13T00:25:07;8.47;;;5.90;;
58097;SDS011;43913;55.940;37.504;2023-01-13T00:27:33;9.53;;;6.00;;
58097;SDS011;43913;55.940;37.504;2023-01-13T00:30:00;10.33;;;6.10;;
58097;SDS011;43913;55.940;37.504;2023-01-13T00:32:26;11.07;;;5.83;;
58097;SDS011;43913;55.940;37.504;2023-01-13T00:34:52;11.20;;;6.10;;
58097;SDS011;43913;55.940;37.504;2023-01-13T00:37:19;9.27;;;6.47;;
58097;SDS011;43913;55.940;37.504;2023-01-13T00:39:44;9.47;;;5.93;;
58097;SDS011;43913;55.940;37.504;2023-01-13T00:42:10;11.67;;;6.57;;
58097;SDS011;43913;55.940;37.504;2023-01-13T00:45:03;8.33;;;6.03;;
58097;SDS011;43913;55.940;37.504;2023-01-13T00:47:30;8.03;;;5.80;;
58097;SDS011;43913;55.940;37.504;2023-01-13T00:49:56;8.60;;;5.90;;
58097;SDS011;43913;55.940;37.504;2023-01-13T00:52:21;7.40;;;5.97;;
58097;SDS011;43913;55.940;37.504;2023-01-13T00:54:47;6.30;;;5.57;;
58097;SDS011;43913;55.940;37.504;2023-01-13T00:57:13;6.67;;;4.63;;
58097;SDS011;43913;55.940;37.504;2023-01-13T00:59:39;9.87;;;6.37;;
58097;SDS011;43913;55.940;37.504;2023-01-13T01:02:05;7.80;;;5.73;;
58097;SDS011;43913;55.940;37.504;2023-01-13T01:04:31;13.07;;;5.53;;
58097;SDS011;43913;55.940;37.504;2023-01-13T01:06:57;7.70;;;5.17;;
58097;SDS011;43913;55.940;37.504;2023-01-13T01:09:22;6.27;;;4.90;;
58097;SDS011;43913;55.940;37.504;2023-01-13T01:11:51;6.93;;;5.47;;
58097;SDS011;43913;55.940;37.504;2023-01-13T01:14:17;9.23;;;5.90;;
58097;SDS011;43913;55.940;37.504;2023-01-13T01:16:42;9.70;;;5.17;;
58097;SDS011;43913;55.940;37.504;2023-01-13T01:19:08;8.90;;;5.30;;
58097;SDS011;43913;55.940;37.504;2023-01-13T01:21:34;7.80;;;4.87;;
58097;SDS011;43913;55.940;37.504;2023-01-13T01:24:01;8.87;;;4.87;;
58097;SDS011;43913;55.940;37.504;2023-01-13T01:26:28;8.03;;;5.47;;
58097;SDS011;43913;55.940;37.504;2023-01-13T01:28:54;6.67;;;4.40;;
58097;SDS011;43913;55.940;37.504;2023-01-13T01:31:25;7.27;;;5.27;;
58097;SDS011;43913;55.940;37.504;2023-01-13T01:33:52;7.63;;;5.53;;
58097;SDS011;43913;55.940;37.504;2023-01-13T01:36:19;9.10;;;5.40;;
58097;SDS011;43913;55.940;37.504;2023-01-13T01:38:45;8.47;;;5.87;;
58097;SDS011;43913;55.940;37.504;2023-01-13T01:41:16;6.57;;;5.27;;
58097;SDS011;43913;55.940;37.504;2023-01-13T01:46:38;11.07;;;5.20;;
58097;SDS011;43913;55.940;37.504;2023-01-13T01:49:28;5.80;;;4.50;;
58097;SDS011;43913;55.940;37.504;2023-01-13T01:51:59;6.43;;;4.90;;
58097;SDS011;43913;55.940;37.504;2023-01-13T01:54:31;8.67;;;4.80;;
58097;SDS011;43913;55.940;37.504;2023-01-13T01:57:02;7.13;;;5.40;;
58097;SDS011;43913;55.940;37.504;2023-01-13T01:59:28;8.90;;;5.30;;
58097;SDS011;43913;55.940;37.504;2023-01-13T02:01:56;8.30;;;5.53;;
58097;SDS011;43913;55.940;37.504;2023-01-13T02:04:27;6.10;;;4.50;;
58097;SDS011;43913;55.940;37.504;2023-01-13T02:06:55;11.27;;;5.37;;
58097;SDS011;43913;55.940;37.504;2023-01-13T02:09:21;7.17;;;5.47;;
58097;SDS011;43913;55.940;37.504;2023-01-13T02:11:47;6.67;;;4.70;;
58097;SDS011;43913;55.940;37.504;2023-01-13T02:14:31;6.23;;;5.20;;
58097;SDS011;43913;55.940;37.504;2023-01-13T02:36:23;6.70;;;5.33;;
58097;SDS011;43913;55.940;37.504;2023-01-13T02:39:14;8.80;;;5.87;;
58097;SDS011;43913;55.940;37.504;2023-01-13T02:41:50;7.37;;;5.03;;
58097;SDS011;43913;55.940;37.504;2023-01-13T02:45:00;6.30;;;4.47;;
58097;SDS011;43913;55.940;37.504;2023-01-13T02:47:29;5.90;;;4.50;;
58097;SDS011;43913;55.940;37.504;2023-01-13T02:50:02;8.13;;;4.87;;
58097;SDS011;43913;55.940;37.504;2023-01-13T02:52:34;5.07;;;4.43;;
58097;SDS011;43913;55.940;37.504;2023-01-13T02:55:04;7.77;;;4.80;;
58097;SDS011;43913;55.940;37.504;2023-01-13T02:57:33;6.33;;;5.23;;
58097;SDS011;43913;55.940;37.504;2023-01-13T03:00:00;7.53;;;4.80;;
58097;SDS011;43913;55.940;37.504;2023-01-13T03:02:26;8.13;;;4.63;;
58097;SDS011;43913;55.940;37.504;2023-01-13T03:04:53;6.97;;;4.50;;
58097;SDS011;43913;55.940;37.504;2023-01-13T03:10:26;6.70;;;4.80;;
58097;SDS011;43913;55.940;37.504;2023-01-13T03:15:46;5.77;;;4.00;;
58097;SDS011;43913;55.940;37.504;2023-01-13T03:18:21;6.93;;;4.50;;
58097;SDS011;43913;55.940;37.504;2023-01-13T03:29:40;6.47;;;4.43;;
58097;SDS011;43913;55.940;37.504;2023-01-13T03:32:23;6.93;;;5.23;;
58097;SDS011;43913;55.940;37.504;2023-01-13T03:34:54;5.33;;;4.00;;
58097;SDS011;43913;55.940;37.504;2023-01-13T03:37:25;7.18;;;4.63;;
58097;SDS011;43913;55.940;37.504;2023-01-13T03:40:17;5.90;;;4.40;;
58097;SDS011;43913;55.940;37.504;2023-01-13T03:42:45;6.27;;;4.50;;
58097;SDS011;43913;55.940;37.504;2023-01-13T03:45:33;5.07;;;4.57;;
58097;SDS011;43913;55.940;37.504;2023-01-13T03:48:02;5.57;;;4.27;;
58097;SDS011;43913;55.940;37.504;2023-01-13T03:50:32;7.57;;;4.23;;
58097;SDS011;43913;55.940;37.504;2023-01-13T03:53:08;5.20;;;4.43;;
58097;SDS011;43913;55.940;37.504;2023-01-13T03:55:38;7.17;;;5.10;;
58097;SDS011;43913;55.940;37.504;2023-01-13T03:58:08;5.63;;;4.00;;
58097;SDS011;43913;55.940;37.504;2023-01-13T04:00:41;5.63;;;4.50;;
58097;SDS011;43913;55.940;37.504;2023-01-13T04:03:13;6.20;;;5.07;;
58097;SDS011;43913;55.940;37.504;2023-01-13T04:08:51;6.87;;;4.87;;
58097;SDS011;43913;55.940;37.504;2023-01-13T04:11:28;9.43;;;5.63;;
58097;SDS011;43913;55.940;37.504;2023-01-13T04:14:00;7.67;;;4.60;;
58097;SDS011;43913;55.940;37.504;2023-01-13T04:16:27;9.17;;;5.13;;
58097;SDS011;43913;55.940;37.504;2023-01-13T04:18:53;9.50;;;5.23;;
58097;SDS011;43913;55.940;37.504;2023-01-13T04:21:19;5.83;;;4.80;;
58097;SDS011;43913;55.940;37.504;2023-01-13T04:23:45;6.20;;;4.20;;
58097;SDS011;43913;55.940;37.504;2023-01-13T04:26:10;5.70;;;5.10;;
58097;SDS011;43913;55.940;37.504;2023-01-13T04:28:36;8.37;;;5.37;;
58097;SDS011;43913;55.940;37.504;2023-01-13T04:31:02;7.37;;;5.50;;
58097;SDS011;43913;55.940;37.504;2023-01-13T04:33:28;7.40;;;5.07;;
58097;SDS011;43913;55.940;37.504;2023-01-13T04:35:53;7.17;;;5.20;;
58097;SDS011;43913;55.940;37.504;2023-01-13T04:38:19;6.30;;;5.07;;
58097;SDS011;43913;55.940;37.504;2023-01-13T04:40:45;6.77;;;5.07;;
58097;SDS011;43913;55.940;37.504;2023-01-13T04:43:12;7.87;;;6.13;;
58097;SDS011;43913;55.940;37.504;2023-01-13T04:45:40;7.60;;;5.47;;
58097;SDS011;43913;55.940;37.504;2023-01-13T04:48:06;8.03;;;4.70;;
58097;SDS011;43913;55.940;37.504;2023-01-13T04:50:34;6.30;;;4.97;;
58097;SDS011;43913;55.940;37.504;2023-01-13T04:53:00;7.43;;;4.87;;
58097;SDS011;43913;55.940;37.504;2023-01-13T04:55:26;9.07;;;5.53;;
58097;SDS011;43913;55.940;37.504;2023-01-13T04:57:52;7.00;;;5.20;;
58097;SDS011;43913;55.940;37.504;2023-01-13T05:00:19;11.93;;;6.20;;
58097;SDS011;43913;55.940;37.504;2023-01-13T05:02:48;5.67;;;4.67;;
58097;SDS011;43913;55.940;37.504;2023-01-13T05:05:14;7.80;;;4.17;;
58097;SDS011;43913;55.940;37.504;2023-01-13T05:07:40;11.07;;;4.50;;
58097;SDS011;43913;55.940;37.504;2023-01-13T05:10:06;7.00;;;5.37;;
58097;SDS011;43913;55.940;37.504;2023-01-13T05:12:32;6.67;;;4.23;;
58097;SDS011;43913;55.940;37.504;2023-01-13T05:15:16;7.77;;;4.23;;
58097;SDS011;43913;55.940;37.504;2023-01-13T05:18:00;7.17;;;5.07;;
58097;SDS011;43913;55.940;37.504;2023-01-13T05:20:26;7.93;;;5.33;;
58097;SDS011;43913;55.940;37.504;2023-01-13T05:22:52;6.43;;;4.53;;
58097;SDS011;43913;55.940;37.504;2023-01-13T05:25:39;5.80;;;4.40;;
58097;SDS011;43913;55.940;37.504;2023-01-13T05:28:06;9.47;;;5.53;;
58097;SDS011;43913;55.940;37.504;2023-01-13T05:30:35;7.00;;;4.33;;
58097;SDS011;43913;55.940;37.504;2023-01-13T05:33:02;7.27;;;4.73;;
58097;SDS011;43913;55.940;37.504;2023-01-13T05:35:28;7.80;;;5.00;;
58097;SDS011;43913;55.940;37.504;2023-01-13T05:37:56;8.83;;;4.77;;
58097;SDS011;43913;55.940;37.504;2023-01-13T05:40:22;6.80;;;4.40;;
58097;SDS011;43913;55.940;37.504;2023-01-13T05:43:14;5.60;;;4.93;;
58097;SDS011;43913;55.940;37.504;2023-01-13T05:45:51;5.43;;;4.77;;
58097;SDS011;43913;55.940;37.504;2023-01-13T05:48:18;6.97;;;4.90;;
58097;SDS011;43913;55.940;37.504;2023-01-13T05:50:45;6.40;;;5.53;;
58097;SDS011;43913;55.940;37.504;2023-01-13T05:53:12;6.63;;;5.30;;
58097;SDS011;43913;55.940;37.504;2023-01-13T05:55:39;5.93;;;5.20;;
58097;SDS011;43913;55.940;37.504;2023-01-13T05:58:06;9.60;;;6.17;;
58097;SDS011;43913;55.940;37.504;2023-01-13T06:00:35;7.13;;;4.90;;
58097;SDS011;43913;55.940;37.504;2023-01-13T06:03:01;6.33;;;4.70;;
58097;SDS011;43913;55.940;37.504;2023-01-13T06:05:28;8.17;;;5.43;;
58097;SDS011;43913;55.940;37.504;2023-01-13T06:07:55;7.53;;;5.00;;
58097;SDS011;43913;55.940;37.504;2023-01-13T06:10:24;7.77;;;5.40;;
58097;SDS011;43913;55.940;37.504;2023-01-13T06:12:50;7.33;;;4.60;;
58097;SDS011;43913;55.940;37.504;2023-01-13T06:15:16;9.60;;;5.10;;
58097;SDS011;43913;55.940;37.504;2023-01-13T06:17:42;8.67;;;5.50;;
58097;SDS011;43913;55.940;37.504;2023-01-13T06:20:08;8.40;;;5.10;;
58097;SDS011;43913;55.940;37.504;2023-01-13T06:22:36;6.30;;;4.23;;
58097;SDS011;43913;55.940;37.504;2023-01-13T06:25:08;5.80;;;4.63;;
58097;SDS011;43913;55.940;37.504;2023-01-13T06:27:38;10.63;;;5.13;;
58097;SDS011;43913;55.940;37.504;2023-01-13T06:30:04;6.27;;;4.53;;
58097;SDS011;43913;55.940;37.504;2023-01-13T06:32:32;7.73;;;5.13;;
58097;SDS011;43913;55.940;37.504;2023-01-13T06:35:00;6.13;;;5.13;;
58097;SDS011;43913;55.940;37.504;2023-01-13T06:37:28;8.47;;;4.93;;
58097;SDS011;43913;55.940;37.504;2023-01-13T06:39:56;7.27;;;5.07;;
58097;SDS011;43913;55.940;37.504;2023-01-13T06:42:26;11.60;;;5.43;;
58097;SDS011;43913;55.940;37.504;2023-01-13T06:45:11;8.17;;;4.80;;
58097;SDS011;43913;55.940;37.504;2023-01-13T06:47:37;5.67;;;5.07;;
58097;SDS011;43913;55.940;37.504;2023-01-13T06:50:03;5.67;;;4.63;;
58097;SDS011;43913;55.940;37.504;2023-01-13T06:52:29;9.13;;;5.77;;
58097;SDS011;43913;55.940;37.504;2023-01-13T06:54:57;5.60;;;4.77;;
58097;SDS011;43913;55.940;37.504;2023-01-13T06:57:23;5.97;;;4.87;;
58097;SDS011;43913;55.940;37.504;2023-01-13T06:59:49;7.17;;;5.10;;
58097;SDS011;43913;55.940;37.504;2023-01-13T07:02:15;7.87;;;5.40;;
58097;SDS011;43913;55.940;37.504;2023-01-13T07:04:40;7.07;;;5.37;;
58097;SDS011;43913;55.940;37.504;2023-01-13T07:07:06;9.70;;;5.30;;
58097;SDS011;43913;55.940;37.504;2023-01-13T07:09:32;6.10;;;5.03;;
58097;SDS011;43913;55.940;37.504;2023-01-13T07:11:58;9.13;;;6.00;;
58097;SDS011;43913;55.940;37.504;2023-01-13T07:14:24;7.53;;;5.27;;
58097;SDS011;43913;55.940;37.504;2023-01-13T07:17:08;7.80;;;6.13;;
58097;SDS011;43913;55.940;37.504;2023-01-13T07:19:34;7.50;;;4.78;;
58097;SDS011;43913;55.940;37.504;2023-01-13T07:22:00;6.57;;;4.67;;
58097;SDS011;43913;55.940;37.504;2023-01-13T07:24:25;5.93;;;5.00;;
58097;SDS011;43913;55.940;37.504;2023-01-13T07:26:51;7.27;;;5.37;;
58097;SDS011;43913;55.940;37.504;2023-01-13T07:29:17;7.80;;;5.37;;
58097;SDS011;43913;55.940;37.504;2023-01-13T07:31:43;6.87;;;4.80;;
58097;SDS011;43913;55.940;37.504;2023-01-13T07:34:08;6.10;;;4.87;;
58097;SDS011;43913;55.940;37.504;2023-01-13T07:36:34;9.27;;;5.20;;
58097;SDS011;43913;55.940;37.504;2023-01-13T07:39:00;11.80;;;5.30;;
58097;SDS011;43913;55.940;37.504;2023-01-13T07:41:26;7.43;;;4.20;;
58097;SDS011;43913;55.940;37.504;2023-01-13T07:44:10;7.03;;;4.27;;
58097;SDS011;43913;55.940;37.504;2023-01-13T07:46:46;5.87;;;4.50;;
58097;SDS011;43913;55.940;37.504;2023-01-13T07:49:12;7.73;;;5.20;;
58097;SDS011;43913;55.940;37.504;2023-01-13T07:51:38;8.57;;;5.13;;
58097;SDS011;43913;55.940;37.504;2023-01-13T07:54:04;7.67;;;5.07;;
58097;SDS011;43913;55.940;37.504;2023-01-13T07:56:31;7.37;;;5.00;;
58097;SDS011;43913;55.940;37.504;2023-01-13T07:59:00;7.97;;;5.83;;
58097;SDS011;43913;55.940;37.504;2023-01-13T08:01:28;7.67;;;4.77;;
58097;SDS011;43913;55.940;37.504;2023-01-13T08:04:01;9.93;;;6.03;;
58097;SDS011;43913;55.940;37.504;2023-01-13T08:06:27;7.80;;;4.50;;
58097;SDS011;43913;55.940;37.504;2023-01-13T08:08:52;8.37;;;5.40;;
58097;SDS011;43913;55.940;37.504;2023-01-13T08:11:18;8.80;;;5.17;;
58097;SDS011;43913;55.940;37.504;2023-01-13T08:13:44;11.83;;;5.70;;
58097;SDS011;43913;55.940;37.504;2023-01-13T08:16:11;6.63;;;5.20;;
58097;SDS011;43913;55.940;37.504;2023-01-13T08:18:38;6.83;;;4.63;;
58097;SDS011;43913;55.940;37.504;2023-01-13T08:21:06;7.20;;;4.80;;
58097;SDS011;43913;55.940;37.504;2023-01-13T08:23:33;6.80;;;4.93;;
58097;SDS011;43913;55.940;37.504;2023-01-13T08:25:59;7.63;;;5.33;;
58097;SDS011;43913;55.940;37.504;2023-01-13T08:28:27;6.13;;;4.57;;
58097;SDS011;43913;55.940;37.504;2023-01-13T08:30:53;6.17;;;4.67;;
58097;SDS011;43913;55.940;37.504;2023-01-13T08:33:19;8.77;;;5.20;;
58097;SDS011;43913;55.940;37.504;2023-01-13T08:35:45;7.17;;;4.80;;
58097;SDS011;43913;55.940;37.504;2023-01-13T08:38:12;7.20;;;4.50;;
58097;SDS011;43913;55.940;37.504;2023-01-13T08:40:38;5.70;;;4.40;;
58097;SDS011;43913;55.940;37.504;2023-01-13T08:43:04;9.77;;;5.20;;
58097;SDS011;43913;55.940;37.504;2023-01-13T08:45:30;6.33;;;4.53;;
58097;SDS011;43913;55.940;37.504;2023-01-13T08:47:55;5.40;;;4.47;;
58097;SDS011;43913;55.940;37.504;2023-01-13T08:50:21;7.03;;;4.50;;
58097;SDS011;43913;55.940;37.504;2023-01-13T08:52:47;9.00;;;4.70;;
58097;SDS011;43913;55.940;37.504;2023-01-13T08:55:12;6.17;;;4.57;;
58097;SDS011;43913;55.940;37.504;2023-01-13T08:57:39;6.80;;;5.40;;
58097;SDS011;43913;55.940;37.504;2023-01-13T09:00:06;5.20;;;4.40;;
58097;SDS011;43913;55.940;37.504;2023-01-13T09:02:34;7.90;;;5.10;;
58097;SDS011;43913;55.940;37.504;2023-01-13T09:05:00;6.43;;;4.90;;
58097;SDS011;43913;55.940;37.504;2023-01-13T09:07:28;9.98;;;6.30;;
58097;SDS011;43913;55.940;37.504;2023-01-13T09:09:55;7.63;;;5.22;;
58097;SDS011;43913;55.940;37.504;2023-01-13T09:12:21;7.43;;;5.38;;
58097;SDS011;43913;55.940;37.504;2023-01-13T09:15:06;7.25;;;5.25;;
58097;SDS011;43913;55.940;37.504;2023-01-13T09:17:32;9.73;;;6.67;;
58097;SDS011;43913;55.940;37.504;2023-01-13T09:19:58;6.53;;;5.47;;
58097;SDS011;43913;55.940;37.504;2023-01-13T09:22:24;7.17;;;5.60;;
58097;SDS011;43913;55.940;37.504;2023-01-13T09:24:51;6.63;;;5.22;;
58097;SDS011;43913;55.940;37.504;2023-01-13T09:27:18;9.17;;;6.50;;
58097;SDS011;43913;55.940;37.504;2023-01-13T09:29:44;6.33;;;5.33;;
58097;SDS011;43913;55.940;37.504;2023-01-13T09:32:13;9.93;;;6.50;;
58097;SDS011;43913;55.940;37.504;2023-01-13T09:34:39;6.33;;;5.70;;
58097;SDS011;43913;55.940;37.504;2023-01-13T09:37:27;7.10;;;6.25;;
58097;SDS011;43913;55.940;37.504;2023-01-13T09:40:03;6.50;;;5.80;;
58097;SDS011;43913;55.940;37.504;2023-01-13T09:42:32;8.37;;;6.43;;
58097;SDS011;43913;55.940;37.504;2023-01-13T09:45:26;10.10;;;6.83;;
58097;SDS011;43913;55.940;37.504;2023-01-13T09:53:13;9.07;;;6.13;;
58097;SDS011;43913;55.940;37.504;2023-01-13T09:55:44;8.47;;;6.73;;
58097;SDS011;43913;55.940;37.504;2023-01-13T09:58:11;9.57;;;6.57;;
58097;SDS011;43913;55.940;37.504;2023-01-13T10:00:43;8.30;;;6.33;;
58097;SDS011;43913;55.940;37.504;2023-01-13T10:06:07;9.80;;;6.78;;
58097;SDS011;43913;55.940;37.504;2023-01-13T10:08:54;7.03;;;5.77;;
58097;SDS011;43913;55.940;37.504;2023-01-13T10:11:22;7.80;;;6.27;;
58097;SDS011;43913;55.940;37.504;2023-01-13T10:16:58;6.93;;;6.23;;
58097;SDS011;43913;55.940;37.504;2023-01-13T10:19:46;7.73;;;5.17;;
58097;SDS011;43913;55.940;37.504;2023-01-13T10:27:42;7.87;;;5.57;;
58097;SDS011;43913;55.940;37.504;2023-01-13T10:32:54;8.03;;;6.20;;
58097;SDS011;43913;55.940;37.504;2023-01-13T10:38:35;6.50;;;5.73;;
58097;SDS011;43913;55.940;37.504;2023-01-13T10:41:04;7.30;;;6.30;;
58097;SDS011;43913;55.940;37.504;2023-01-13T10:43:33;6.50;;;5.83;;
58097;SDS011;43913;55.940;37.504;2023-01-13T10:46:03;7.80;;;6.50;;
58097;SDS011;43913;55.940;37.504;2023-01-13T10:48:30;12.43;;;8.17;;
58097;SDS011;43913;55.940;37.504;2023-01-13T10:51:17;9.43;;;6.77;;
58097;SDS011;43913;55.940;37.504;2023-01-13T10:53:44;7.90;;;6.43;;
58097;SDS011;43913;55.940;37.504;2023-01-13T10:56:18;10.20;;;7.40;;
58097;SDS011;43913;55.940;37.504;2023-01-13T10:58:45;8.13;;;6.37;;
58097;SDS011;43913;55.940;37.504;2023-01-13T11:01:51;7.27;;;6.57;;
58097;SDS011;43913;55.940;37.504;2023-01-13T11:04:08;8.23;;;6.63;;
58097;SDS011;43913;55.940;37.504;2023-01-13T11:06:49;8.65;;;5.75;;
58097;SDS011;43913;55.940;37.504;2023-01-13T11:09:18;9.60;;;5.73;;
58097;SDS011;43913;55.940;37.504;2023-01-13T11:11:44;8.07;;;6.20;;
58097;SDS011;43913;55.940;37.504;2023-01-13T11:14:19;8.47;;;6.40;;
58097;SDS011;43913;55.940;37.504;2023-01-13T11:22:46;7.10;;;6.00;;
58097;SDS011;43913;55.940;37.504;2023-01-13T11:25:21;8.80;;;5.70;;
58097;SDS011;43913;55.940;37.504;2023-01-13T11:30:49;7.03;;;5.68;;
58097;SDS011;43913;55.940;37.504;2023-01-13T11:41:23;9.57;;;6.20;;
58097;SDS011;43913;55.940;37.504;2023-01-13T11:44:15;7.95;;;6.03;;
58097;SDS011;43913;55.940;37.504;2023-01-13T11:46:46;6.97;;;5.83;;
58097;SDS011;43913;55.940;37.504;2023-01-13T11:49:17;6.97;;;5.47;;
58097;SDS011;43913;55.940;37.504;2023-01-13T11:52:05;6.33;;;5.73;;
58097;SDS011;43913;55.940;37.504;2023-01-13T11:55:13;7.50;;;5.47;;
58097;SDS011;43913;55.940;37.504;2023-01-13T11:57:45;5.90;;;5.30;;
58097;SDS011;43913;55.940;37.504;2023-01-13T12:06:07;8.47;;;5.93;;
58097;SDS011;43913;55.940;37.504;2023-01-13T12:16:58;7.67;;;6.53;;
58097;SDS011;43913;55.940;37.504;2023-01-13T12:19:26;9.13;;;5.47;;
58097;SDS011;43913;55.940;37.504;2023-01-13T12:22:08;9.05;;;6.40;;
58097;SDS011;43913;55.940;37.504;2023-01-13T12:28:13;7.05;;;5.72;;
58097;SDS011;43913;55.940;37.504;2023-01-13T12:30:48;5.78;;;5.18;;
58097;SDS011;43913;55.940;37.504;2023-01-13T12:41:27;7.95;;;5.70;;
58097;SDS011;43913;55.940;37.504;2023-01-13T12:44:01;8.10;;;5.93;;
58097;SDS011;43913;55.940;37.504;2023-01-13T12:46:47;8.40;;;6.13;;
58097;SDS011;43913;55.940;37.504;2023-01-13T12:49:23;6.80;;;6.07;;
58097;SDS011;43913;55.940;37.504;2023-01-13T12:59:41;9.40;;;6.68;;
58097;SDS011;43913;55.940;37.504;2023-01-13T13:07:31;10.93;;;6.95;;
58097;SDS011;43913;55.940;37.504;2023-01-13T13:10:03;8.97;;;6.03;;
58097;SDS011;43913;55.940;37.504;2023-01-13T13:15:26;10.67;;;7.30;;
58097;SDS011;43913;55.940;37.504;2023-01-13T13:25:59;8.50;;;6.32;;
58097;SDS011;43913;55.940;37.504;2023-01-13T13:28:39;9.05;;;6.45;;
58097;SDS011;43913;55.940;37.504;2023-01-13T13:31:20;8.90;;;6.37;;
58097;SDS011;43913;55.940;37.504;2023-01-13T13:34:38;7.10;;;5.70;;
58097;SDS011;43913;55.940;37.504;2023-01-13T13:39:23;7.13;;;5.67;;
58097;SDS011;43913;55.940;37.504;2023-01-13T13:42:16;8.70;;;6.97;;
58097;SDS011;43913;55.940;37.504;2023-01-13T13:45:08;12.17;;;7.47;;
58097;SDS011;43913;55.940;37.504;2023-01-13T13:47:58;14.13;;;6.50;;
58097;SDS011;43913;55.940;37.504;2023-01-13T13:50:25;9.20;;;6.70;;
58097;SDS011;43913;55.940;37.504;2023-01-13T13:53:02;10.57;;;7.30;;
58097;SDS011;43913;55.940;37.504;2023-01-13T13:55:29;9.43;;;7.07;;
58097;SDS011;43913;55.940;37.504;2023-01-13T13:57:56;11.03;;;7.13;;
58097;SDS011;43913;55.940;37.504;2023-01-13T14:00:24;11.47;;;7.73;;
58097;SDS011;43913;55.940;37.504;2023-01-13T14:02:51;10.70;;;7.20;;
58097;SDS011;43913;55.940;37.504;2023-01-13T14:05:20;8.00;;;6.47;;
58097;SDS011;43913;55.940;37.504;2023-01-13T14:07:49;9.00;;;6.97;;
58097;SDS011;43913;55.940;37.504;2023-01-13T14:10:23;10.17;;;7.07;;
58097;SDS011;43913;55.940;37.504;2023-01-13T14:12:53;10.27;;;7.77;;
58097;SDS011;43913;55.940;37.504;2023-01-13T14:15:23;11.63;;;7.93;;
58097;SDS011;43913;55.940;37.504;2023-01-13T14:17:57;11.03;;;7.70;;
58097;SDS011;43913;55.940;37.504;2023-01-13T14:20:24;15.20;;;8.67;;
58097;SDS011;43913;55.940;37.504;2023-01-13T14:22:51;9.90;;;7.40;;
58097;SDS011;43913;55.940;37.504;2023-01-13T14:28:26;12.93;;;8.35;;
58097;SDS011;43913;55.940;37.504;2023-01-13T14:30:52;11.70;;;8.30;;
58097;SDS011;43913;55.940;37.504;2023-01-13T14:33:20;10.50;;;7.97;;
58097;SDS011;43913;55.940;37.504;2023-01-13T14:38:49;12.17;;;8.27;;
58097;SDS011;43913;55.940;37.504;2023-01-13T14:46:43;11.27;;;7.82;;
58097;SDS011;43913;55.940;37.504;2023-01-13T14:54:53;13.43;;;7.87;;
58097;SDS011;43913;55.940;37.504;2023-01-13T15:07:53;13.13;;;8.60;;
58097;SDS011;43913;55.940;37.504;2023-01-13T15:10:25;12.73;;;8.07;;
58097;SDS011;43913;55.940;37.504;2023-01-13T15:12:53;11.67;;;8.67;;
58097;SDS011;43913;55.940;37.504;2023-01-13T15:17:47;14.73;;;9.67;;
58097;SDS011;43913;55.940;37.504;2023-01-13T15:20:13;15.70;;;8.73;;
58097;SDS011;43913;55.940;37.504;2023-01-13T15:22:43;15.13;;;10.10;;
58097;SDS011;43913;55.940;37.504;2023-01-13T15:25:10;13.30;;;10.70;;
58097;SDS011;43913;55.940;37.504;2023-01-13T15:27:39;13.87;;;9.93;;
58097;SDS011;43913;55.940;37.504;2023-01-13T15:30:13;13.00;;;9.73;;
58097;SDS011;43913;55.940;37.504;2023-01-13T15:32:40;14.97;;;9.80;;
58097;SDS011;43913;55.940;37.504;2023-01-13T15:35:06;12.77;;;9.67;;
58097;SDS011;43913;55.940;37.504;2023-01-13T15:37:33;11.93;;;9.63;;
58097;SDS011;43913;55.940;37.504;2023-01-13T15:39:58;15.93;;;10.40;;
58097;SDS011;43913;55.940;37.504;2023-01-13T15:42:24;14.90;;;10.37;;
58097;SDS011;43913;55.940;37.504;2023-01-13T15:45:11;17.70;;;11.27;;
58097;SDS011;43913;55.940;37.504;2023-01-13T15:47:56;17.13;;;11.53;;
58097;SDS011;43913;55.940;37.504;2023-01-13T15:50:22;16.20;;;11.13;;
58097;SDS011;43913;55.940;37.504;2023-01-13T15:52:47;14.77;;;10.87;;
58097;SDS011;43913;55.940;37.504;2023-01-13T15:55:13;16.90;;;11.87;;
58097;SDS011;43913;55.940;37.504;2023-01-13T15:57:40;19.07;;;12.33;;
58097;SDS011;43913;55.940;37.504;2023-01-13T16:00:12;18.67;;;14.45;;
58097;SDS011;43913;55.940;37.504;2023-01-13T16:02:39;19.60;;;13.07;;
58097;SDS011;43913;55.940;37.504;2023-01-13T16:05:05;19.47;;;13.30;;
58097;SDS011;43913;55.940;37.504;2023-01-13T16:07:31;19.40;;;14.00;;
58097;SDS011;43913;55.940;37.504;2023-01-13T16:09:57;20.27;;;14.53;;
58097;SDS011;43913;55.940;37.504;2023-01-13T16:12:26;18.13;;;13.70;;
58097;SDS011;43913;55.940;37.504;2023-01-13T16:14:51;20.17;;;13.50;;
58097;SDS011;43913;55.940;37.504;2023-01-13T16:17:18;10.33;;;7.80;;
58097;SDS011;43913;55.940;37.504;2023-01-13T16:19:46;8.43;;;6.93;;
58097;SDS011;43913;55.940;37.504;2023-01-13T16:22:12;7.20;;;5.13;;
58097;SDS011;43913;55.940;37.504;2023-01-13T16:24:39;6.13;;;5.18;;
58097;SDS011;43913;55.940;37.504;2023-01-13T16:29:39;6.68;;;5.15;;
58097;SDS011;43913;55.940;37.504;2023-01-13T16:32:06;6.80;;;5.18;;
58097;SDS011;43913;55.940;37.504;2023-01-13T16:34:32;6.07;;;5.00;;
58097;SDS011;43913;55.940;37.504;2023-01-13T16:36:58;6.45;;;4.57;;
58097;SDS011;43913;55.940;37.504;2023-01-13T16:39:24;6.28;;;5.00;;
58097;SDS011;43913;55.940;37.504;2023-01-13T16:41:50;6.65;;;4.97;;
58097;SDS011;43913;55.940;37.504;2023-01-13T16:44:16;9.35;;;4.95;;
58097;SDS011;43913;55.940;37.504;2023-01-13T16:46:42;8.48;;;5.63;;
58097;SDS011;43913;55.940;37.504;2023-01-13T16:49:12;8.38;;;5.03;;
58097;SDS011;43913;55.940;37.504;2023-01-13T16:51:39;9.40;;;5.03;;
58097;SDS011;43913;55.940;37.504;2023-01-13T16:54:04;10.32;;;7.07;;
58097;SDS011;43913;55.940;37.504;2023-01-13T16:56:31;11.45;;;8.55;;
58097;SDS011;43913;55.940;37.504;2023-01-13T16:59:03;12.38;;;9.95;;
58097;SDS011;43913;55.940;37.504;2023-01-13T17:01:33;17.38;;;12.60;;
58097;SDS011;43913;55.940;37.504;2023-01-13T17:04:01;20.65;;;14.48;;
58097;SDS011;43913;55.940;37.504;2023-01-13T17:06:38;19.15;;;14.30;;
58097;SDS011;43913;55.940;37.504;2023-01-13T17:09:16;19.70;;;13.63;;
58097;SDS011;43913;55.940;37.504;2023-01-13T17:11:44;17.25;;;13.40;;
58097;SDS011;43913;55.940;37.504;2023-01-13T17:14:10;15.18;;;11.77;;
58097;SDS011;43913;55.940;37.504;2023-01-13T17:16:46;14.73;;;11.05;;
58097;SDS011;43913;55.940;37.504;2023-01-13T17:19:11;15.65;;;11.80;;
58097;SDS011;43913;55.940;37.504;2023-01-13T17:21:37;14.60;;;11.75;;
58097;SDS011;43913;55.940;37.504;2023-01-13T17:24:06;14.52;;;11.43;;
58097;SDS011;43913;55.940;37.504;2023-01-13T17:26:41;17.58;;;11.45;;
58097;SDS011;43913;55.940;37.504;2023-01-13T17:29:15;12.07;;;10.52;;
58097;SDS011;43913;55.940;37.504;2023-01-13T17:31:42;15.48;;;11.52;;